San Roque, Argentina
Current Conditions -  °F | °C
As of 1:00 PM on Sunday 25 Jan 2015 (Local Time) from SAME Reporting Station
Few Clouds Few Clouds  
Wind Chill: 90°   Ceiling: Unl
Heat Index: 90°   Visibility: 6mi
Dew Point: 57°   Wind: 9mph
Humidity: 33%   Direction: 110°ESE
Pressure: 29.85"   Gusts: NA
Location:  33.05°S, 68.58°W
Report Text: SAME 251600Z 11008KT 9999 FEW045CB FEW050TCU32/14 Q1011
Loading
Personal Weather Stations






























Interactive Weather Map New forecast layout! Learn more

10-Day Weather Forecast

Advertisements
Track Severe Weather on mobile